createdAt,value
2019-05-26T00:01:51.218Z,6.00
2019-05-26T00:06:59.996Z,7.40
2019-05-26T00:12:08.851Z,8.20
2019-05-26T00:17:17.724Z,8.13
2019-05-26T00:22:26.538Z,9.70
2019-05-26T00:27:35.364Z,8.83
2019-05-26T00:32:44.131Z,7.77
2019-05-26T00:37:52.910Z,10.23
2019-05-26T00:43:01.699Z,8.20
2019-05-26T00:48:10.572Z,8.00
2019-05-26T00:53:19.288Z,7.40
2019-05-26T00:58:28.196Z,6.80
2019-05-26T01:03:37.064Z,6.40
2019-05-26T01:08:45.958Z,7.17
2019-05-26T01:13:54.657Z,6.33
2019-05-26T01:19:03.532Z,6.97
2019-05-26T01:24:12.342Z,7.13
2019-05-26T01:29:21.009Z,8.23
2019-05-26T01:34:31.067Z,8.27
2019-05-26T01:39:39.937Z,6.30
2019-05-26T01:44:48.620Z,7.17
2019-05-26T01:49:57.250Z,6.03
2019-05-26T01:55:06.064Z,6.60
2019-05-26T02:00:15.050Z,8.30
2019-05-26T02:05:23.850Z,7.57
2019-05-26T02:10:32.732Z,7.17
2019-05-26T02:15:41.410Z,7.70
2019-05-26T02:20:50.177Z,7.37
2019-05-26T02:25:58.915Z,8.37
2019-05-26T02:31:07.545Z,7.23
2019-05-26T02:36:16.246Z,9.20
2019-05-26T02:41:25.064Z,7.87
2019-05-26T02:46:33.915Z,9.73
2019-05-26T02:51:42.654Z,8.30
2019-05-26T02:56:51.389Z,8.53
2019-05-26T03:02:03.842Z,9.13
2019-05-26T03:07:09.267Z,9.37
2019-05-26T03:12:18.007Z,8.57
2019-05-26T03:17:27.099Z,9.13
2019-05-26T03:22:36.400Z,10.23
2019-05-26T03:27:45.033Z,9.07
2019-05-26T03:32:53.909Z,11.00
2019-05-26T03:38:02.774Z,10.97
2019-05-26T03:43:11.597Z,11.40
2019-05-26T03:48:20.237Z,11.20
2019-05-26T03:53:29.197Z,11.80
2019-05-26T03:58:38.612Z,13.17
2019-05-26T04:03:47.342Z,13.20
2019-05-26T04:08:56.198Z,13.40
2019-05-26T04:14:04.951Z,13.40
2019-05-26T04:19:13.662Z,14.83
2019-05-26T04:24:22.467Z,14.33
2019-05-26T04:29:31.402Z,14.50
2019-05-26T04:34:40.275Z,14.73
2019-05-26T04:39:48.961Z,15.90
2019-05-26T04:44:57.663Z,15.67
2019-05-26T04:55:22.012Z,15.83
2019-05-26T05:00:30.942Z,15.70
2019-05-26T05:05:39.672Z,16.40
2019-05-26T05:10:48.476Z,16.17
2019-05-26T05:15:57.406Z,16.43
2019-05-26T05:21:06.039Z,15.50
2019-05-26T05:26:14.811Z,16.47
2019-05-26T05:31:23.614Z,16.17
2019-05-26T05:36:32.341Z,16.93
2019-05-26T05:41:41.010Z,15.80
2019-05-26T05:46:49.796Z,16.13
2019-05-26T05:51:58.699Z,14.73
2019-05-26T05:57:07.566Z,16.40
2019-05-26T06:02:16.402Z,14.70
2019-05-26T06:07:25.241Z,15.03
2019-05-26T06:12:34.128Z,12.50
2019-05-26T06:17:42.949Z,12.73
2019-05-26T06:22:51.884Z,13.50
2019-05-26T06:28:00.963Z,13.23
2019-05-26T06:33:09.731Z,13.70
2019-05-26T06:38:18.735Z,14.07
2019-05-26T06:43:27.404Z,13.40
2019-05-26T06:48:35.986Z,13.10
2019-05-26T06:53:44.808Z,12.87
2019-05-26T06:58:53.382Z,13.13
2019-05-26T07:04:02.048Z,12.87
2019-05-26T07:09:10.960Z,11.13
2019-05-26T07:14:19.906Z,10.23
2019-05-26T07:19:28.737Z,10.47
2019-05-26T07:24:37.636Z,10.80
2019-05-26T07:29:46.489Z,10.30
2019-05-26T07:34:55.262Z,9.77
2019-05-26T07:40:04.137Z,9.00
2019-05-26T07:45:12.976Z,9.73
2019-05-26T07:50:23.277Z,9.70
2019-05-26T07:55:31.994Z,10.47
2019-05-26T08:00:40.758Z,9.23
2019-05-26T08:05:49.448Z,9.43
2019-05-26T08:10:58.196Z,8.70
2019-05-26T08:16:07.020Z,10.37
2019-05-26T08:21:15.794Z,7.60
2019-05-26T08:26:24.659Z,9.60
2019-05-26T08:31:33.381Z,8.73
2019-05-26T08:36:42.070Z,8.17
2019-05-26T08:41:50.828Z,8.50
2019-05-26T08:46:59.566Z,8.17
2019-05-26T08:52:08.426Z,10.57
2019-05-26T08:57:17.289Z,7.77
2019-05-26T09:02:26.102Z,9.23
2019-05-26T09:07:34.925Z,9.83
2019-05-26T09:12:43.600Z,9.20
2019-05-26T09:17:52.387Z,8.47
2019-05-26T09:23:01.294Z,7.33
2019-05-26T09:28:10.039Z,7.63
2019-05-26T09:33:18.937Z,6.53
2019-05-26T09:38:27.704Z,7.00
2019-05-26T09:43:36.533Z,6.40
2019-05-26T09:48:45.191Z,5.73
2019-05-26T09:54:01.838Z,7.43
2019-05-26T09:59:02.701Z,5.57
2019-05-26T10:04:11.535Z,6.23
2019-05-26T10:09:20.125Z,4.90
2019-05-26T10:14:28.961Z,5.67
2019-05-26T10:19:37.786Z,5.50
2019-05-26T10:24:46.469Z,5.13
2019-05-26T10:29:55.258Z,4.30
2019-05-26T10:35:05.073Z,5.43
2019-05-26T10:40:14.187Z,6.50
2019-05-26T10:45:23.037Z,5.07
2019-05-26T10:50:31.754Z,6.17
2019-05-26T10:55:40.633Z,5.43
2019-05-26T11:00:49.447Z,4.50
2019-05-26T11:05:58.364Z,6.20
2019-05-26T11:11:07.016Z,3.53
2019-05-26T11:16:15.829Z,3.87
2019-05-26T11:21:24.615Z,4.10
2019-05-26T11:26:33.503Z,4.20
2019-05-26T11:31:42.141Z,3.73
2019-05-26T11:36:50.844Z,4.47
2019-05-26T11:42:12.238Z,3.43
2019-05-26T11:47:07.981Z,3.17
2019-05-26T11:52:20.083Z,4.17
2019-05-26T11:57:25.301Z,4.07
2019-05-26T12:02:34.029Z,3.27
2019-05-26T12:07:42.773Z,2.83
2019-05-26T12:12:51.292Z,2.70
2019-05-26T12:17:59.790Z,3.83
2019-05-26T12:23:08.335Z,4.23
2019-05-26T12:28:16.953Z,4.03
2019-05-26T12:33:25.475Z,6.50
2019-05-26T12:38:35.299Z,3.47
2019-05-26T12:43:43.961Z,3.80
2019-05-26T12:48:52.722Z,3.23
2019-05-26T12:54:01.475Z,4.17
2019-05-26T12:59:10.335Z,3.90
2019-05-26T13:04:19.132Z,4.60
2019-05-26T13:09:27.988Z,2.97
2019-05-26T13:14:36.745Z,4.10
2019-05-26T13:19:45.427Z,3.80
2019-05-26T13:24:54.336Z,3.70
2019-05-26T13:30:03.548Z,3.93
2019-05-26T13:35:12.545Z,2.93
2019-05-26T13:40:21.480Z,4.10
2019-05-26T13:45:33.619Z,4.00
2019-05-26T13:50:39.019Z,5.03
2019-05-26T13:55:47.916Z,4.03
2019-05-26T14:00:56.875Z,3.47
2019-05-26T14:06:05.729Z,2.73
2019-05-26T14:11:14.434Z,3.70
2019-05-26T14:16:23.428Z,3.30
2019-05-26T14:21:32.333Z,4.37
2019-05-26T14:26:41.078Z,4.33
2019-05-26T14:31:52.767Z,3.23
2019-05-26T14:36:58.802Z,3.77
2019-05-26T14:42:07.623Z,3.60
2019-05-26T14:47:16.217Z,2.83
2019-05-26T14:52:25.077Z,2.77
2019-05-26T14:57:34.008Z,4.57
2019-05-26T15:02:42.810Z,2.93
2019-05-26T15:07:51.574Z,4.90
2019-05-26T15:13:00.461Z,4.30
2019-05-26T15:18:09.430Z,2.63
2019-05-26T15:23:18.159Z,3.87
2019-05-26T15:28:27.098Z,2.77
2019-05-26T15:33:35.821Z,3.93
2019-05-26T15:38:44.814Z,4.23
2019-05-26T15:43:53.760Z,2.47
2019-05-26T15:49:02.539Z,4.03
2019-05-26T15:54:11.667Z,3.23
2019-05-26T15:59:20.567Z,4.13
2019-05-26T16:04:29.221Z,3.00
2019-05-26T16:09:38.119Z,3.43
2019-05-26T16:14:47.011Z,3.77
2019-05-26T16:19:55.750Z,3.60
2019-05-26T16:25:04.767Z,3.13
2019-05-26T16:30:13.472Z,3.57
2019-05-26T16:35:22.231Z,4.47
2019-05-26T16:40:31.040Z,4.43
2019-05-26T16:45:54.956Z,3.67
2019-05-26T16:50:48.743Z,2.83
2019-05-26T16:55:57.975Z,5.67
2019-05-26T17:01:06.789Z,4.47
2019-05-26T17:06:15.701Z,3.50
2019-05-26T17:11:24.678Z,4.10
2019-05-26T17:16:33.679Z,3.17
2019-05-26T17:21:43.250Z,4.73
2019-05-26T17:26:51.994Z,4.20
2019-05-26T17:32:00.929Z,4.60
2019-05-26T17:37:09.838Z,4.27
2019-05-26T17:42:19.232Z,3.70
2019-05-26T17:47:30.777Z,5.13
2019-05-26T17:52:37.428Z,4.13
2019-05-26T17:57:48.155Z,4.50
2019-05-26T18:03:00.874Z,3.63
2019-05-26T18:08:09.708Z,2.97
2019-05-26T18:13:18.609Z,4.03
2019-05-26T18:18:27.282Z,4.23
2019-05-26T18:23:36.279Z,5.70
2019-05-26T18:28:45.130Z,6.53
2019-05-26T18:33:54.210Z,5.80
2019-05-26T18:39:03.965Z,3.77
2019-05-26T18:44:13.586Z,4.93
2019-05-26T18:49:23.207Z,5.03
2019-05-26T18:54:33.980Z,4.30
2019-05-26T18:59:43.770Z,7.47
2019-05-26T19:04:54.875Z,5.07
2019-05-26T19:10:06.176Z,8.33
2019-05-26T19:15:19.481Z,7.23
2019-05-26T19:20:33.377Z,7.47
2019-05-26T19:25:42.405Z,6.77
2019-05-26T19:30:51.318Z,8.57
2019-05-26T19:36:00.274Z,9.47
2019-05-26T19:41:09.414Z,5.63
2019-05-26T19:46:18.226Z,6.17
2019-05-26T19:51:27.236Z,5.23
2019-05-26T19:56:36.314Z,4.73
2019-05-26T20:01:45.032Z,6.90
2019-05-26T20:06:53.972Z,5.53
2019-05-26T20:12:02.881Z,5.70
2019-05-26T20:17:11.798Z,5.10
2019-05-26T20:22:24.312Z,6.80
2019-05-26T20:27:29.636Z,6.00
2019-05-26T20:32:38.492Z,7.40
2019-05-26T20:37:47.227Z,7.23
2019-05-26T20:42:56.220Z,6.53
2019-05-26T20:48:04.946Z,5.57
2019-05-26T20:53:13.824Z,6.83
2019-05-26T20:58:22.664Z,8.70
2019-05-26T21:03:31.356Z,6.50
2019-05-26T21:08:40.320Z,6.80
2019-05-26T21:13:49.053Z,7.63
2019-05-26T21:18:57.597Z,6.93
2019-05-26T21:24:06.260Z,6.73
2019-05-26T21:29:15.253Z,6.60
2019-05-26T21:34:24.148Z,5.83
2019-05-26T21:39:33.017Z,7.73
2019-05-26T21:44:41.985Z,7.40
2019-05-26T21:49:50.867Z,7.67
2019-05-26T21:54:59.796Z,7.47
2019-05-26T22:00:08.807Z,7.30
2019-05-26T22:05:18.152Z,6.43
2019-05-26T22:10:26.840Z,5.50
2019-05-26T22:15:35.530Z,6.20
2019-05-26T22:20:44.663Z,8.00
2019-05-26T22:25:53.491Z,7.57
2019-05-26T22:31:02.325Z,8.30
2019-05-26T22:36:11.124Z,6.87
2019-05-26T22:41:20.015Z,6.80
2019-05-26T22:46:28.740Z,6.63
2019-05-26T22:51:37.634Z,7.13
2019-05-26T22:56:46.308Z,7.23
2019-05-26T23:01:54.974Z,5.83
2019-05-26T23:07:03.950Z,6.87
2019-05-26T23:12:12.694Z,5.90
2019-05-26T23:17:22.985Z,6.43
2019-05-26T23:22:31.855Z,7.13
2019-05-26T23:27:40.666Z,7.43
2019-05-26T23:32:49.578Z,7.73
2019-05-26T23:37:58.268Z,7.40
2019-05-26T23:43:07.086Z,7.47
2019-05-26T23:48:15.766Z,7.53
2019-05-26T23:53:24.519Z,6.23
2019-05-26T23:58:33.392Z,6.50
